Time;durP1;ratioP1;P1;durP2;ratioP2;P2;SDS_P1;SDS_P2;PMS_P1;PMS_P2;Temp;Humidity;BMP_temperature;BMP_pressure;BME280_temperature;BME280_humidity;BME280_pressure;Samples;Min_cycle;Max_cycle;Signal;HPM_P1;HPM_P2
2023/04/25 00:01:56;;;;;;;2.75;1.33;;;;;;;19.56;51.75;99143.19;5054903;28;20071;-65
2023/04/25 00:04:25;;;;;;;2.20;1.30;;;;;;;19.55;51.80;99144.19;5054754;28;20052;-65
2023/04/25 00:06:54;;;;;;;2.42;1.23;;;;;;;19.55;51.88;99146.03;5054698;28;20088;-65
2023/04/25 00:09:22;;;;;;;1.90;0.93;;;;;;;19.54;51.94;99138.94;5054583;28;20137;-67
2023/04/25 00:11:50;;;;;;;2.92;1.20;;;;;;;19.52;51.77;99139.13;5054260;28;20084;-65
2023/04/25 00:14:18;;;;;;;2.13;1.20;;;;;;;19.53;51.68;99134.56;5054576;28;20067;-65
2023/04/25 00:16:48;;;;;;;2.40;1.20;;;;;;;19.51;52.09;99129.34;5054386;28;20051;-65
2023/04/25 00:19:18;;;;;;;1.30;1.20;;;;;;;19.50;52.10;99132.22;5054345;28;20044;-65
2023/04/25 00:21:46;;;;;;;3.08;1.20;;;;;;;19.49;52.13;99135.91;5054278;28;20045;-65
2023/04/25 00:24:15;;;;;;;2.67;1.40;;;;;;;19.48;51.93;99123.41;5054228;28;20049;-65
2023/04/25 00:26:43;;;;;;;2.72;1.35;;;;;;;19.45;52.00;99116.50;5054385;28;20132;-65
2023/04/25 00:29:11;;;;;;;2.60;1.08;;;;;;;19.44;52.03;99123.78;5054364;28;20144;-65
2023/04/25 00:31:39;;;;;;;2.00;1.10;;;;;;;19.42;51.77;99128.53;5054332;28;20418;-64
2023/04/25 00:34:08;;;;;;;1.88;1.08;;;;;;;19.41;52.15;99116.03;5054063;28;20060;-65
2023/04/25 00:36:37;;;;;;;1.77;1.00;;;;;;;19.40;52.16;99117.06;5053969;28;20053;-65
2023/04/25 00:39:06;;;;;;;3.00;1.10;;;;;;;19.40;51.71;99113.50;5053635;28;20114;-65
2023/04/25 00:41:34;;;;;;;1.88;0.80;;;;;;;19.40;52.02;99116.22;5054054;28;20045;-65
2023/04/25 00:44:04;;;;;;;1.35;1.10;;;;;;;19.37;51.84;99117.38;5053732;28;20497;-65
2023/04/25 00:46:32;;;;;;;2.30;1.10;;;;;;;19.38;52.04;99123.63;5053644;28;20163;-65
2023/04/25 00:49:00;;;;;;;2.10;1.10;;;;;;;19.37;52.16;99114.69;5053745;28;20080;-65
2023/04/25 00:51:29;;;;;;;1.85;1.17;;;;;;;19.34;52.21;99109.63;5053618;28;20493;-65
2023/04/25 00:54:00;;;;;;;3.30;1.08;;;;;;;19.35;52.05;99108.63;5053548;28;20505;-65
2023/04/25 00:56:28;;;;;;;1.92;0.95;;;;;;;19.35;52.11;99105.06;5053611;28;20081;-64
2023/04/25 00:58:57;;;;;;;2.25;1.10;;;;;;;19.34;51.89;99097.97;5053618;28;20122;-65
2023/04/25 01:01:25;;;;;;;2.13;1.02;;;;;;;19.33;52.24;99110.66;5052994;28;20742;-65
2023/04/25 01:03:54;;;;;;;1.77;1.02;;;;;;;19.32;52.17;99103.56;5053398;28;20498;-65
2023/04/25 01:06:23;;;;;;;2.70;1.35;;;;;;;19.31;52.28;99096.47;5053348;28;20064;-65
2023/04/25 01:08:52;;;;;;;2.67;1.02;;;;;;;19.31;51.94;99087.53;5053484;28;20053;-65
2023/04/25 01:11:21;;;;;;;1.75;1.00;;;;;;;19.31;51.93;99087.53;5053526;28;20060;-64
2023/04/25 01:13:50;;;;;;;1.33;0.98;;;;;;;19.29;52.22;99076.88;5053337;28;20128;-64
2023/04/25 01:16:18;;;;;;;2.65;1.30;;;;;;;19.30;51.91;99078.56;5053155;28;20603;-65
2023/04/25 01:18:47;;;;;;;2.60;1.25;;;;;;;19.29;51.92;99078.72;5052892;28;20128;-64
2023/04/25 01:21:17;;;;;;;1.85;1.20;;;;;;;19.28;52.10;99075.19;5053032;28;20048;-64
2023/04/25 01:23:45;;;;;;;1.55;1.05;;;;;;;19.28;52.05;99077.03;5053109;28;20041;-64
2023/04/25 01:26:13;;;;;;;2.85;1.20;;;;;;;19.27;52.26;99078.91;5053058;28;20047;-64
2023/04/25 01:28:42;;;;;;;2.08;1.20;;;;;;;19.26;52.06;99077.22;5053019;28;20055;-64
2023/04/25 01:31:10;;;;;;;1.67;1.00;;;;;;;19.27;52.20;99078.91;5052842;28;20147;-65
2023/04/25 01:33:38;;;;;;;1.52;1.05;;;;;;;19.25;52.26;99082.81;5052821;28;20080;-64
2023/04/25 01:36:07;;;;;;;2.03;1.27;;;;;;;19.24;52.04;99079.28;5052838;28;20476;-64
2023/04/25 01:38:36;;;;;;;1.67;0.90;;;;;;;19.25;52.04;99082.81;5052728;28;20084;-64
2023/04/25 01:41:06;;;;;;;2.60;1.30;;;;;;;19.23;52.15;99077.59;5052866;28;20045;-64
2023/04/25 01:43:34;;;;;;;2.10;1.20;;;;;;;19.23;52.36;99082.16;5053104;28;20049;-64
2023/04/25 01:46:02;;;;;;;1.52;1.08;;;;;;;19.22;52.31;99084.00;5052468;28;20068;-65
2023/04/25 01:48:33;;;;;;;2.08;1.20;;;;;;;19.21;52.02;99079.63;5052753;28;20406;-64
2023/04/25 01:51:01;;;;;;;2.47;1.27;;;;;;;19.21;52.15;99090.44;5052570;28;20045;-64
2023/04/25 01:53:30;;;;;;;2.35;1.13;;;;;;;19.20;51.99;99077.91;5052533;28;20045;-64
2023/04/25 01:55:59;;;;;;;1.60;1.10;;;;;;;19.19;52.22;99087.03;5052321;28;20053;-66
2023/04/25 01:58:28;;;;;;;1.90;1.10;;;;;;;19.17;52.05;99076.41;5052335;28;20041;-66
2023/04/25 02:00:56;;;;;;;2.00;1.08;;;;;;;19.16;52.15;99082.84;5052233;28;20049;-66
2023/04/25 02:03:24;;;;;;;2.08;1.13;;;;;;;19.16;52.10;99084.69;5052515;28;20052;-65
2023/04/25 02:05:52;;;;;;;1.95;1.13;;;;;;;19.15;51.97;99081.16;5052352;28;20110;-65
2023/04/25 02:08:21;;;;;;;1.63;1.00;;;;;;;19.14;52.35;99078.63;5052310;28;20049;-65
2023/04/25 02:10:49;;;;;;;2.10;1.15;;;;;;;19.14;52.38;99090.28;5052184;28;20095;-65
2023/04/25 02:13:19;;;;;;;2.33;1.23;;;;;;;19.13;52.27;99082.38;5051371;28;20060;-65
2023/04/25 02:15:47;;;;;;;2.30;1.13;;;;;;;19.13;52.17;99071.56;5052080;28;20456;-65
2023/04/25 02:18:16;;;;;;;1.73;1.00;;;;;;;19.11;52.23;99082.53;5052135;28;20077;-66
2023/04/25 02:20:44;;;;;;;1.52;1.02;;;;;;;19.11;52.31;99084.41;5051923;28;20098;-66
2023/04/25 02:23:12;;;;;;;2.10;1.10;;;;;;;19.10;52.40;99077.28;5052047;28;20063;-66
2023/04/25 02:25:40;;;;;;;1.95;0.95;;;;;;;19.09;52.39;99081.00;5052152;28;20052;-66
2023/04/25 02:28:08;;;;;;;2.10;1.20;;;;;;;19.09;52.17;99075.59;5052024;28;20041;-66
2023/04/25 02:30:38;;;;;;;3.67;1.35;;;;;;;19.08;52.35;99082.88;5052031;28;20049;-66
2023/04/25 02:33:06;;;;;;;1.88;1.13;;;;;;;19.08;52.31;99074.75;5051883;28;20052;-66
2023/04/25 02:35:35;;;;;;;2.35;1.10;;;;;;;19.07;52.26;99086.59;5051685;28;20541;-66
2023/04/25 02:38:03;;;;;;;1.83;1.00;;;;;;;19.06;52.11;99082.22;5051647;28;20132;-66
2023/04/25 02:40:31;;;;;;;2.28;1.20;;;;;;;19.05;52.41;99072.41;5051686;28;20136;-66
2023/04/25 02:42:59;;;;;;;2.42;1.20;;;;;;;19.06;52.42;99075.97;5051952;28;20052;-66
2023/04/25 02:45:27;;;;;;;1.63;1.00;;;;;;;19.05;52.34;99066.19;5051584;28;20053;-66
2023/04/25 02:47:57;;;;;;;2.13;1.30;;;;;;;19.05;52.27;99063.47;5051804;28;20413;-66
2023/04/25 02:50:25;;;;;;;1.50;1.00;;;;;;;19.04;52.27;99069.91;5051600;28;20049;-66
2023/04/25 02:52:53;;;;;;;2.83;1.10;;;;;;;19.03;52.00;99071.75;5051564;28;20053;-66
2023/04/25 02:55:24;;;;;;;1.48;1.15;;;;;;;19.01;52.19;99068.41;5051699;28;20383;-65
2023/04/25 02:57:56;;;;;;;1.52;1.10;;;;;;;19.01;52.32;99076.50;5051676;28;20054;-66
2023/04/25 03:00:24;;;;;;;2.75;1.20;;;;;;;19.00;52.11;99072.09;5051565;28;20143;-66
2023/04/25 03:02:52;;;;;;;2.67;1.10;;;;;;;18.99;52.18;99072.25;5051674;28;20045;-65
2023/04/25 03:05:22;;;;;;;2.25;0.95;;;;;;;19.00;52.42;99076.66;5051442;28;20092;-66
2023/04/25 03:07:50;;;;;;;2.33;1.23;;;;;;;18.99;52.40;99070.41;5051470;28;20549;-67
2023/04/25 03:10:18;;;;;;;2.05;0.95;;;;;;;18.98;52.02;99071.44;5051602;28;20048;-66
2023/04/25 03:12:46;;;;;;;1.60;0.90;;;;;;;18.97;52.24;99071.59;5051425;28;20045;-66
2023/04/25 03:15:16;;;;;;;2.47;1.20;;;;;;;18.98;52.19;99076.00;5051532;28;20044;-66
2023/04/25 03:17:44;;;;;;;2.97;1.27;;;;;;;18.97;52.36;99074.31;5051277;28;20052;-66
2023/04/25 03:20:13;;;;;;;2.55;1.08;;;;;;;18.97;51.97;99068.91;5051359;28;20037;-66
2023/04/25 03:22:43;;;;;;;2.00;1.30;;;;;;;18.97;52.28;99071.59;5051574;28;20462;-66
2023/04/25 03:25:11;;;;;;;2.13;1.05;;;;;;;18.95;52.35;99065.53;5053845;28;20055;-66
2023/04/25 03:27:39;;;;;;;2.33;1.00;;;;;;;18.94;51.98;99078.22;5055354;28;20075;-66
2023/04/25 03:30:08;;;;;;;1.70;1.00;;;;;;;18.94;52.24;99066.56;5055228;28;20055;-66
2023/04/25 03:32:36;;;;;;;1.33;1.00;;;;;;;18.93;52.45;99070.28;5055111;28;20095;-66
2023/04/25 03:35:05;;;;;;;1.85;1.20;;;;;;;18.92;52.05;99074.84;5055003;28;20060;-66
2023/04/25 03:37:33;;;;;;;1.30;0.93;;;;;;;18.93;52.39;99070.28;5055118;28;20103;-66
2023/04/25 03:40:04;;;;;;;1.92;1.05;;;;;;;18.91;52.26;99070.44;5055019;28;20497;-66
2023/04/25 03:42:32;;;;;;;2.72;1.27;;;;;;;18.91;52.25;99077.69;5055079;28;20053;-66
2023/04/25 03:45:01;;;;;;;2.70;1.10;;;;;;;18.91;52.02;99075.00;5054660;28;20494;-66
2023/04/25 03:47:29;;;;;;;2.75;1.40;;;;;;;18.90;52.05;99070.59;5054831;28;20445;-66
2023/04/25 03:49:58;;;;;;;2.08;1.10;;;;;;;18.89;52.31;99075.16;5055081;28;20402;-66
2023/04/25 03:52:26;;;;;;;2.00;1.10;;;;;;;18.88;52.16;99081.59;5054979;28;20375;-66
2023/04/25 03:54:54;;;;;;;2.42;1.35;;;;;;;18.87;52.23;99085.31;5054769;28;20041;-66
2023/04/25 03:57:23;;;;;;;2.17;1.30;;;;;;;18.86;52.37;99089.88;5054653;28;20103;-66
2023/04/25 03:59:52;;;;;;;2.40;1.40;;;;;;;18.85;52.13;99093.59;5054558;28;20045;-65
2023/04/25 04:02:20;;;;;;;2.22;1.20;;;;;;;18.84;52.27;99089.22;5054873;28;20111;-65
2023/04/25 04:04:48;;;;;;;2.00;1.30;;;;;;;18.84;51.99;99086.50;5054653;28;20136;-65
2023/04/25 04:07:17;;;;;;;1.42;1.10;;;;;;;18.84;51.99;99083.81;5054600;28;20041;-65
2023/04/25 04:09:45;;;;;;;1.67;1.15;;;;;;;18.83;52.35;99087.53;5054507;28;20045;-65
2023/04/25 04:12:14;;;;;;;2.50;0.98;;;;;;;18.81;52.25;99092.25;5054350;28;20045;-65
2023/04/25 04:14:43;;;;;;;1.88;1.27;;;;;;;18.81;52.00;99100.34;5054655;28;20110;-65
2023/04/25 04:17:11;;;;;;;1.98;1.20;;;;;;;18.81;52.21;99089.53;5054443;28;20048;-65
2023/04/25 04:19:39;;;;;;;2.08;1.10;;;;;;;18.80;52.07;99095.13;5054301;28;20053;-64
2023/04/25 04:22:07;;;;;;;3.33;1.40;;;;;;;18.80;52.18;99100.53;5054315;28;20049;-65
2023/04/25 04:24:35;;;;;;;1.70;1.20;;;;;;;18.79;52.05;99096.97;5054341;28;20053;-64
2023/04/25 04:27:04;;;;;;;1.63;1.10;;;;;;;18.78;52.09;99106.09;5053981;28;20072;-65
2023/04/25 04:29:32;;;;;;;1.63;1.02;;;;;;;18.78;52.20;99102.56;5054363;28;20084;-64
2023/04/25 04:32:02;;;;;;;1.90;0.98;;;;;;;18.78;52.20;99105.25;5054060;28;20041;-64
2023/04/25 04:34:30;;;;;;;2.28;1.20;;;;;;;18.78;52.05;99098.00;5054195;28;20041;-66
2023/04/25 04:36:58;;;;;;;1.98;1.10;;;;;;;18.77;51.94;99109.81;5053020;28;20071;-65
2023/04/25 04:39:27;;;;;;;1.42;1.00;;;;;;;18.75;52.28;99105.63;5053773;28;20148;-65
2023/04/25 04:41:55;;;;;;;2.88;1.42;;;;;;;18.75;52.19;99103.75;5054060;28;20041;-65
2023/04/25 04:44:26;;;;;;;3.28;1.30;;;;;;;18.75;52.09;99101.06;5053833;28;20116;-65
2023/04/25 04:46:54;;;;;;;1.85;1.17;;;;;;;18.73;52.19;99105.78;5053871;28;20052;-64
2023/04/25 04:49:24;;;;;;;2.30;1.10;;;;;;;18.73;52.07;99108.50;5053626;28;20140;-64
2023/04/25 04:51:52;;;;;;;1.65;1.20;;;;;;;18.73;51.87;99104.94;5053538;28;20087;-65
2023/04/25 04:54:20;;;;;;;1.77;1.20;;;;;;;18.72;52.02;99106.81;5071673;28;20125;-66
2023/04/25 04:56:48;;;;;;;2.00;1.15;;;;;;;18.71;51.76;99112.34;5073585;28;20049;-66
2023/04/25 04:59:16;;;;;;;1.85;1.15;;;;;;;18.69;51.80;99107.13;5073507;28;20505;-65
2023/04/25 05:01:45;;;;;;;2.13;1.15;;;;;;;18.68;52.06;99110.84;5073809;28;20048;-66
2023/04/25 05:04:13;;;;;;;2.45;1.40;;;;;;;18.68;51.81;99110.84;5073115;28;20048;-66
2023/04/25 05:06:44;;;;;;;1.73;1.10;;;;;;;18.67;52.10;99125.38;5073037;28;20048;-66
2023/04/25 05:09:16;;;;;;;1.50;1.05;;;;;;;18.65;52.21;99113.91;5073547;28;20094;-66
2023/04/25 05:11:44;;;;;;;1.70;1.02;;;;;;;18.66;51.99;99112.03;5073231;28;20049;-66
2023/04/25 05:14:12;;;;;;;2.15;1.30;;;;;;;18.65;51.99;99111.19;5073118;28;20091;-66
2023/04/25 05:16:40;;;;;;;2.28;1.27;;;;;;;18.63;52.07;99117.78;5073070;28;20052;-65
2023/04/25 05:19:08;;;;;;;2.00;1.15;;;;;;;18.62;52.07;99116.91;5072779;28;20056;-64
2023/04/25 05:21:36;;;;;;;2.45;1.33;;;;;;;18.62;52.30;99108.78;5073106;28;20626;-65
2023/04/25 05:24:06;;;;;;;2.20;1.25;;;;;;;18.60;52.32;99133.28;5073142;28;20218;-65
2023/04/25 05:26:34;;;;;;;2.42;1.30;;;;;;;18.59;52.22;99126.19;5072962;28;20052;-64
2023/04/25 05:29:02;;;;;;;1.90;1.10;;;;;;;18.60;52.35;99116.22;5072799;28;20047;-67
2023/04/25 05:31:31;;;;;;;3.80;1.40;;;;;;;18.59;52.54;99106.44;5072734;28;20497;-64
2023/04/25 05:33:59;;;;;;;2.92;1.45;;;;;;;18.59;53.00;99117.25;5072688;28;20136;-65
2023/04/25 05:36:27;;;;;;;2.35;1.30;;;;;;;18.59;52.98;99117.25;5072365;28;20048;-65
2023/04/25 05:38:56;;;;;;;4.93;1.60;;;;;;;18.59;53.22;99122.66;5072579;28;20477;-67
2023/04/25 05:41:25;;;;;;;3.20;1.50;;;;;;;18.58;53.51;99115.56;5072217;28;20417;-70
2023/04/25 05:43:53;;;;;;;2.72;1.30;;;;;;;18.58;53.45;99118.25;5072390;28;20044;-65
2023/04/25 05:46:25;;;;;;;4.75;1.48;;;;;;;18.58;53.58;99120.97;5071594;28;20179;-66
2023/04/25 05:48:53;;;;;;;3.35;1.50;;;;;;;18.58;53.43;99120.97;5071041;28;20048;-65
2023/04/25 05:51:21;;;;;;;5.20;1.48;;;;;;;18.56;53.63;99120.31;5072100;28;20048;-65
2023/04/25 05:53:49;;;;;;;6.60;1.70;;;;;;;18.55;53.48;99115.91;5072152;28;20474;-65
2023/04/25 05:56:18;;;;;;;4.63;1.42;;;;;;;18.56;53.54;99123.00;5072155;28;20044;-67
2023/04/25 05:58:48;;;;;;;2.95;1.42;;;;;;;18.55;53.86;99126.72;5072180;28;20052;-65
2023/04/25 06:01:16;;;;;;;2.58;1.30;;;;;;;18.56;53.60;99133.81;5072281;28;20563;-69
2023/04/25 06:03:44;;;;;;;6.63;1.70;;;;;;;18.55;53.57;99127.56;5072131;28;20466;-66
2023/04/25 06:06:13;;;;;;;5.07;1.50;;;;;;;18.54;53.73;99131.28;5072429;28;20049;-68
2023/04/25 06:08:41;;;;;;;5.45;1.30;;;;;;;18.55;53.76;99129.41;5072099;28;20045;-67
2023/04/25 06:11:09;;;;;;;6.00;1.63;;;;;;;18.54;53.55;99120.47;5072019;28;20052;-67
2023/04/25 06:13:37;;;;;;;4.43;1.77;;;;;;;18.54;53.59;99136.69;5071823;28;20045;-66
2023/04/25 06:16:07;;;;;;;6.55;1.73;;;;;;;18.55;54.08;99126.72;5072190;28;20059;-67
2023/04/25 06:18:35;;;;;;;3.83;1.50;;;;;;;18.54;53.84;99135.84;5072011;28;20048;-67
2023/04/25 06:21:04;;;;;;;6.20;1.70;;;;;;;18.55;53.91;99137.53;5072136;28;20040;-66
2023/04/25 06:23:32;;;;;;;5.70;1.63;;;;;;;18.56;53.93;99131.09;5072166;28;20051;-66
2023/04/25 06:26:00;;;;;;;6.00;1.60;;;;;;;18.56;54.06;99139.19;5071698;28;20086;-67
2023/04/25 06:28:28;;;;;;;6.43;1.58;;;;;;;18.57;54.28;99132.78;5071996;28;20082;-67
2023/04/25 06:30:57;;;;;;;3.97;1.90;;;;;;;18.56;54.05;99153.53;5072088;28;20045;-67
2023/04/25 06:33:26;;;;;;;4.85;1.80;;;;;;;18.57;54.00;99140.88;5071921;28;20098;-67
2023/04/25 06:35:54;;;;;;;5.30;1.75;;;;;;;18.58;54.04;99153.38;5071642;28;20045;-67
2023/04/25 06:38:24;;;;;;;4.30;1.42;;;;;;;18.58;54.04;99139.88;5071586;28;20083;-67
2023/04/25 06:40:52;;;;;;;8.27;1.50;;;;;;;18.57;54.18;99139.03;5071295;28;20098;-67
2023/04/25 06:43:20;;;;;;;4.22;1.60;;;;;;;18.58;54.15;99146.09;5071504;28;20096;-63
2023/04/25 06:45:48;;;;;;;4.15;1.63;;;;;;;18.58;54.04;99134.47;5071865;28;20052;-66
2023/04/25 06:48:16;;;;;;;4.95;1.50;;;;;;;18.59;54.06;99137.00;5071669;28;20098;-66
2023/04/25 06:50:46;;;;;;;7.30;2.03;;;;;;;18.59;54.06;99138.84;5071651;28;20080;-66
2023/04/25 06:53:15;;;;;;;4.55;1.55;;;;;;;18.60;54.10;99146.78;5071308;28;20052;-66
2023/04/25 06:55:43;;;;;;;4.78;1.55;;;;;;;18.60;53.94;99143.22;5071642;28;20051;-66
2023/04/25 06:58:11;;;;;;;3.63;1.73;;;;;;;18.62;54.05;99143.06;5071233;28;20120;-65
2023/04/25 07:00:39;;;;;;;3.97;1.40;;;;;;;18.62;54.05;99138.50;5070930;28;20088;-66
2023/04/25 07:03:07;;;;;;;6.68;1.70;;;;;;;18.62;54.27;99143.91;5071284;28;20040;-65
2023/04/25 07:05:36;;;;;;;7.03;1.90;;;;;;;18.62;54.13;99143.91;5071158;28;20128;-66
2023/04/25 07:08:06;;;;;;;6.43;1.77;;;;;;;18.61;54.34;99139.53;5071094;28;20098;-66
2023/04/25 07:10:34;;;;;;;5.68;1.73;;;;;;;18.62;54.12;99143.06;5071460;28;20053;-65
2023/04/25 07:13:02;;;;;;;7.60;1.90;;;;;;;18.62;54.20;99138.50;5071418;28;20044;-65
2023/04/25 07:15:30;;;;;;;5.32;1.67;;;;;;;18.62;54.31;99145.75;5071272;28;20040;-64
2023/04/25 07:17:59;;;;;;;9.23;1.85;;;;;;;18.62;54.35;99143.91;5071041;28;20508;-65
2023/04/25 07:20:27;;;;;;;4.53;1.83;;;;;;;18.62;54.33;99140.34;5071561;28;20048;-65
2023/04/25 07:22:55;;;;;;;4.00;1.42;;;;;;;18.63;54.26;99145.63;5071238;28;20044;-66
2023/04/25 07:25:25;;;;;;;4.65;1.80;;;;;;;18.63;54.15;99145.63;5071056;28;20135;-66
2023/04/25 07:27:53;;;;;;;6.80;1.80;;;;;;;18.64;54.22;99147.31;5070069;28;20090;-64
2023/04/25 07:30:22;;;;;;;6.95;2.00;;;;;;;18.64;54.24;99141.06;5071098;28;20045;-66
2023/04/25 07:32:51;;;;;;;4.47;1.70;;;;;;;18.64;54.24;99147.31;5071103;28;20294;-66
2023/04/25 07:35:19;;;;;;;4.78;1.70;;;;;;;18.65;54.24;99146.31;5071246;28;20106;-65
2023/04/25 07:37:47;;;;;;;3.50;1.92;;;;;;;18.66;54.34;99144.47;5071001;28;20084;-66
2023/04/25 07:40:16;;;;;;;5.05;1.60;;;;;;;18.66;53.92;99141.75;5071013;28;20144;-66
2023/04/25 07:42:46;;;;;;;5.45;1.63;;;;;;;18.65;54.29;99149.00;5071310;28;20055;-66
2023/04/25 07:45:14;;;;;;;3.85;1.80;;;;;;;18.66;53.88;99145.31;5070798;28;20139;-65
2023/04/25 07:47:42;;;;;;;5.35;1.73;;;;;;;18.66;54.11;99150.69;5070910;28;20478;-65
2023/04/25 07:50:11;;;;;;;4.68;1.70;;;;;;;18.67;54.05;99152.38;5071066;28;20367;-64
2023/04/25 07:52:39;;;;;;;4.25;1.70;;;;;;;18.67;54.34;99154.25;5070421;28;20139;-65
2023/04/25 07:55:08;;;;;;;3.55;1.40;;;;;;;18.68;53.92;99148.66;5070896;28;20079;-66
2023/04/25 07:57:36;;;;;;;4.15;1.80;;;;;;;18.69;54.17;99157.59;5070801;28;20094;-66
2023/04/25 08:00:09;;;;;;;4.25;1.70;;;;;;;18.70;54.31;99157.44;5070669;28;20414;-66
2023/04/25 08:02:38;;;;;;;3.10;1.60;;;;;;;18.71;53.95;99147.47;5070649;28;20061;-66
2023/04/25 08:05:08;;;;;;;3.10;1.40;;;;;;;18.71;54.40;99148.31;5070875;28;20136;-66
2023/04/25 08:07:36;;;;;;;4.47;1.80;;;;;;;18.71;54.07;99148.31;5070896;28;20128;-65
2023/04/25 08:10:07;;;;;;;2.47;1.55;;;;;;;18.73;54.09;99151.72;5070854;28;20045;-66
2023/04/25 08:12:35;;;;;;;3.55;1.63;;;;;;;18.73;54.14;99154.41;5073614;28;20076;-66
2023/04/25 08:15:07;;;;;;;4.20;1.40;;;;;;;18.74;53.99;99150.69;5074416;28;20152;-65
2023/04/25 08:17:35;;;;;;;3.20;1.60;;;;;;;18.74;54.11;99156.09;5074306;28;20391;-66
2023/04/25 08:20:08;;;;;;;2.75;1.55;;;;;;;18.75;54.18;99155.06;5074270;28;20048;-66
2023/04/25 08:22:37;;;;;;;3.42;1.52;;;;;;;18.76;54.19;99153.22;5074208;28;20123;-65
2023/04/25 08:25:06;;;;;;;3.90;1.75;;;;;;;18.77;54.03;99147.63;5074079;28;20044;-65
2023/04/25 08:27:34;;;;;;;3.50;1.60;;;;;;;18.78;54.01;99148.47;5074042;28;20121;-65
2023/04/25 08:30:03;;;;;;;6.35;1.75;;;;;;;18.76;54.03;99148.66;5073107;28;20091;-65
2023/04/25 08:32:37;;;;;;;3.25;1.30;;;;;;;18.77;53.73;99147.63;5074110;28;20052;-65
2023/04/25 08:35:06;;;;;;;4.43;1.60;;;;;;;18.78;53.65;99160.13;5074083;28;20086;-65
2023/04/25 08:37:34;;;;;;;4.47;1.52;;;;;;;18.78;53.98;99152.03;5073978;28;20044;-65
2023/04/25 08:40:06;;;;;;;3.95;1.60;;;;;;;18.78;53.87;99149.31;5073774;28;20052;-65
2023/04/25 08:42:35;;;;;;;4.23;1.53;;;;;;;18.80;53.74;99162.66;5073892;28;20397;-65
2023/04/25 08:45:04;;;;;;;4.00;1.40;;;;;;;18.80;53.87;99162.66;5073271;28;20827;-65
2023/04/25 08:47:38;;;;;;;3.03;1.45;;;;;;;18.81;53.74;99170.59;5073546;28;20128;-65
2023/04/25 08:50:07;;;;;;;4.00;1.55;;;;;;;18.82;53.88;99175.00;5073681;28;20423;-65
2023/04/25 08:52:38;;;;;;;2.85;1.58;;;;;;;18.82;53.63;99176.84;5073580;28;20049;-65
2023/04/25 08:55:10;;;;;;;2.72;1.30;;;;;;;18.81;53.80;99170.59;5073782;28;20051;-65
2023/04/25 08:57:39;;;;;;;3.47;1.58;;;;;;;18.82;53.62;99172.28;5073683;28;20547;-65
2023/04/25 09:00:10;;;;;;;3.90;1.60;;;;;;;18.83;54.00;99171.28;5073552;28;20143;-65
2023/04/25 09:02:43;;;;;;;4.63;1.50;;;;;;;18.83;53.55;99173.97;5073485;28;20048;-66
2023/04/25 09:05:14;;;;;;;3.55;1.73;;;;;;;18.84;53.71;99175.66;5073874;28;21049;-65
2023/04/25 09:07:42;;;;;;;4.25;1.58;;;;;;;18.85;53.69;99176.50;5073396;28;20489;-65
2023/04/25 09:10:11;;;;;;;4.50;1.67;;;;;;;18.86;53.83;99179.03;5073314;28;20055;-65
2023/04/25 09:12:39;;;;;;;2.28;1.40;;;;;;;18.86;53.70;99173.63;5073376;28;20044;-65
2023/04/25 09:15:09;;;;;;;3.47;1.63;;;;;;;18.87;53.57;99186.13;5073223;28;20044;-65
2023/04/25 09:17:40;;;;;;;2.85;1.60;;;;;;;18.88;53.42;99177.00;5072962;28;20090;-65
2023/04/25 09:20:12;;;;;;;2.97;1.63;;;;;;;18.89;53.25;99175.13;5073215;28;20059;-65
2023/04/25 09:22:41;;;;;;;3.47;1.70;;;;;;;18.90;53.31;99179.53;5072824;28;20082;-65
2023/04/25 09:25:10;;;;;;;2.97;1.60;;;;;;;18.92;53.35;99176.69;5072985;28;20063;-65
2023/04/25 09:27:50;;;;;;;3.83;1.55;;;;;;;18.92;53.29;99177.53;5073018;28;20055;-65
2023/04/25 09:30:19;;;;;;;2.75;1.40;;;;;;;18.93;53.41;99167.56;5072828;28;20048;-66
2023/04/25 09:32:48;;;;;;;2.83;1.27;;;;;;;18.95;53.37;99160.09;5072903;28;20140;-65
2023/04/25 09:35:26;;;;;;;3.15;1.60;;;;;;;18.96;53.32;99169.91;5072954;28;20048;-65
2023/04/25 09:37:55;;;;;;;3.13;1.30;;;;;;;18.98;53.54;99167.88;5072761;28;20055;-66
2023/04/25 09:40:23;;;;;;;2.50;1.40;;;;;;;18.98;53.71;99170.56;5072460;28;20048;-66
2023/04/25 09:42:51;;;;;;;2.58;1.60;;;;;;;18.99;53.67;99166.84;5072670;28;20528;-66
2023/04/25 09:45:19;;;;;;;2.58;1.50;;;;;;;18.99;53.42;99167.69;5072161;28;20056;-66
2023/04/25 09:47:47;;;;;;;1.85;1.30;;;;;;;19.01;53.52;99159.41;5072551;28;20075;-66
2023/04/25 09:50:18;;;;;;;2.35;1.10;;;;;;;19.03;53.61;99152.00;5072595;28;20102;-66
2023/04/25 09:53:03;;;;;;;2.13;1.25;;;;;;;19.04;53.64;99162.63;5072669;28;20060;-66
2023/04/25 09:55:33;;;;;;;2.33;1.23;;;;;;;19.05;53.82;99172.41;5072117;28;20477;-66
2023/04/25 09:58:06;;;;;;;2.45;1.30;;;;;;;19.06;53.88;99160.59;5072265;28;20067;-67
2023/04/25 10:00:35;;;;;;;2.00;1.13;;;;;;;19.10;54.03;99158.38;5072261;28;20143;-67
2023/04/25 10:03:04;;;;;;;3.17;1.40;;;;;;;19.11;53.72;99155.50;5072216;28;20045;-67
2023/04/25 10:05:35;;;;;;;2.47;1.20;;;;;;;19.13;53.71;99163.44;5072117;28;20051;-67
2023/04/25 10:08:08;;;;;;;2.00;1.17;;;;;;;19.13;53.70;99172.41;5072254;28;20048;-67
2023/04/25 10:10:38;;;;;;;;;;;;;;;19.16;54.24;99157.69;5072796;28;20401;-66
2023/04/25 10:13:07;;;;;;;1.77;1.00;;;;;;;19.16;53.84;99163.94;5072146;28;19992;-66
2023/04/25 10:15:37;;;;;;;2.13;1.02;;;;;;;19.19;54.07;99167.28;5071951;28;20494;-67
2023/04/25 10:18:08;;;;;;;2.47;1.27;;;;;;;19.17;53.66;99171.03;5072019;28;20091;-67
2023/04/25 10:20:36;;;;;;;1.38;1.00;;;;;;;19.18;53.80;99163.75;5072231;28;20405;-67
2023/04/25 10:23:14;;;;;;;2.28;1.30;;;;;;;19.20;53.54;99169.81;5072102;28;20124;-67
2023/04/25 10:25:43;;;;;;;2.35;1.20;;;;;;;19.21;53.66;99168.00;5071887;28;20139;-66
2023/04/25 10:28:11;;;;;;;1.90;1.00;;;;;;;19.21;53.35;99160.72;5071691;28;20391;-66
2023/04/25 10:30:57;;;;;;;1.48;0.98;;;;;;;19.22;53.56;99162.41;5071727;28;20079;-66
2023/04/25 10:33:36;;;;;;;1.70;1.30;;;;;;;19.23;53.34;99163.25;5071398;28;20045;-66
2023/04/25 10:36:12;;;;;;;2.28;1.35;;;;;;;19.23;53.03;99164.09;5071729;28;20040;-66
2023/04/25 10:38:43;;;;;;;3.45;1.30;;;;;;;19.25;52.96;99166.63;5071964;28;20064;-66
2023/04/25 10:41:12;;;;;;;1.52;0.98;;;;;;;19.25;53.33;99156.66;5071577;28;20075;-66
2023/04/25 10:43:42;;;;;;;2.63;1.20;;;;;;;19.27;53.23;99156.47;5071510;28;20058;-66
2023/04/25 10:46:22;;;;;;;2.58;1.10;;;;;;;19.28;53.51;99156.28;5071137;28;20055;-66
2023/04/25 10:48:52;;;;;;;1.55;1.00;;;;;;;19.30;53.49;99169.63;5071613;28;20071;-66
2023/04/25 10:51:23;;;;;;;2.10;1.10;;;;;;;19.31;53.48;99183.00;5071267;28;20071;-66
2023/04/25 10:54:03;;;;;;;2.50;1.13;;;;;;;19.32;53.56;99173.88;5071255;28;20045;-66
2023/04/25 10:56:32;;;;;;;1.95;1.10;;;;;;;19.34;53.70;99168.28;5071211;28;20052;-66
2023/04/25 10:59:09;;;;;;;2.00;1.10;;;;;;;19.35;53.41;99173.50;5071302;28;20045;-66
2023/04/25 11:01:40;;;;;;;3.03;1.30;;;;;;;19.38;53.26;99173.16;5071162;28;20459;-66
2023/04/25 11:04:21;;;;;;;1.63;0.82;;;;;;;19.38;53.07;99178.56;5071231;28;20048;-65
2023/04/25 11:07:01;;;;;;;2.67;1.23;;;;;;;19.40;52.99;99186.50;5071457;28;20382;-66
2023/04/25 11:09:36;;;;;;;1.60;1.00;;;;;;;19.42;53.06;99184.47;5071225;28;20579;-66
2023/04/25 11:12:05;;;;;;;1.60;1.10;;;;;;;19.43;53.07;99189.69;5071374;28;20090;-66
2023/04/25 11:14:33;;;;;;;1.45;0.90;;;;;;;19.44;53.38;99188.69;5071226;28;20053;-66
2023/04/25 11:17:01;;;;;;;1.35;0.93;;;;;;;19.45;52.92;99184.97;5071460;28;20057;-66
2023/04/25 11:19:31;;;;;;;0.90;0.70;;;;;;;19.49;53.13;99181.88;5071447;28;20040;-66
2023/04/25 11:22:00;;;;;;;1.98;0.98;;;;;;;19.52;53.19;99189.69;5071273;28;20059;-66
2023/04/25 11:24:29;;;;;;;1.27;0.85;;;;;;;19.54;53.26;99183.06;5071522;28;20044;-66
2023/04/25 11:27:03;;;;;;;1.77;1.10;;;;;;;19.56;53.04;99202.69;5070806;28;20128;-65
2023/04/25 11:29:32;;;;;;;1.58;1.00;;;;;;;19.59;52.99;99198.78;5071187;28;20121;-66
2023/04/25 11:32:02;;;;;;;1.80;0.95;;;;;;;19.59;53.21;99196.09;5071222;28;20048;-65
2023/04/25 11:34:32;;;;;;;1.73;1.00;;;;;;;19.61;53.16;99204.88;5071480;28;20136;-66
2023/04/25 11:37:01;;;;;;;1.70;0.98;;;;;;;19.62;53.01;99211.97;5071158;28;20044;-66
2023/04/25 11:39:30;;;;;;;2.60;1.13;;;;;;;19.65;53.08;99207.06;5071078;28;20102;-66
2023/04/25 11:41:59;;;;;;;1.25;0.90;;;;;;;19.67;53.08;99201.47;5070767;28;20080;-66
2023/04/25 11:44:31;;;;;;;2.03;1.08;;;;;;;19.67;53.20;99210.41;5070897;28;20051;-65